Time;durP1;ratioP1;P1;durP2;ratioP2;P2;SDS_P1;SDS_P2;PMS_P1;PMS_P2;Temp;Humidity;BMP_temperature;BMP_pressure;BME280_temperature;BME280_humidity;BME280_pressure;Samples;Min_cycle;Max_cycle;Signal;HPM_P1;HPM_P2
2021/03/18 00:01:47;;;;;;;13.97;3.50;;;2.90;74.80;;;;;;5050336;28;20447;-41
2021/03/18 00:04:19;;;;;;;3.50;2.63;;;2.90;74.90;;;;;;5049556;28;20965;-41
2021/03/18 00:06:46;;;;;;;3.50;3.20;;;2.90;74.90;;;;;;5065050;28;20485;-41
2021/03/18 00:09:18;;;;;;;4.00;3.20;;;2.90;75.00;;;;;;5051865;28;20650;-41
2021/03/18 00:11:47;;;;;;;4.40;3.00;;;2.90;75.00;;;;;;5048402;28;20458;-41
2021/03/18 00:14:20;;;;;;;5.87;3.80;;;2.90;75.20;;;;;;5050825;28;20447;-41
2021/03/18 00:16:47;;;;;;;7.87;3.57;;;2.90;75.10;;;;;;5070136;28;20834;-41
2021/03/18 00:19:14;;;;;;;2.83;2.63;;;2.90;75.10;;;;;;5050852;28;20478;-41
2021/03/18 00:21:41;;;;;;;5.03;2.73;;;2.90;75.00;;;;;;5051473;28;20463;-41
2021/03/18 00:24:08;;;;;;;4.23;3.20;;;2.90;74.90;;;;;;5051761;28;20547;-41
2021/03/18 00:26:35;;;;;;;5.30;3.87;;;2.90;74.80;;;;;;5051447;28;20478;-41
2021/03/18 00:29:04;;;;;;;3.37;3.10;;;2.90;74.80;;;;;;5047258;28;20455;-41
2021/03/18 00:31:33;;;;;;;4.33;3.00;;;2.90;74.90;;;;;;5046106;28;21140;-41
2021/03/18 00:34:01;;;;;;;3.40;3.10;;;2.90;75.00;;;;;;5054810;28;20513;-41
2021/03/18 00:36:30;;;;;;;8.10;3.10;;;2.80;75.00;;;;;;5049045;28;20453;-41
2021/03/18 00:38:58;;;;;;;6.00;3.70;;;2.80;75.10;;;;;;5046782;28;20813;-41
2021/03/18 00:41:25;;;;;;;4.70;3.33;;;2.80;75.10;;;;;;5047141;28;20461;-41
2021/03/18 00:43:52;;;;;;;6.93;3.17;;;2.80;75.20;;;;;;5048706;28;20999;-41
2021/03/18 00:46:21;;;;;;;5.97;3.33;;;2.70;75.20;;;;;;5046499;28;20482;-41
2021/03/18 00:48:50;;;;;;;5.90;3.83;;;2.70;75.10;;;;;;5065850;28;20459;-41
2021/03/18 00:51:17;;;;;;;5.67;3.63;;;2.70;75.30;;;;;;5046432;28;20504;-41
2021/03/18 00:53:46;;;;;;;5.03;3.80;;;2.70;75.30;;;;;;5047754;28;20459;-41
2021/03/18 00:56:15;;;;;;;5.27;3.97;;;2.70;75.30;;;;;;5046063;28;21088;-43
2021/03/18 00:58:43;;;;;;;4.37;3.37;;;2.60;75.30;;;;;;5061199;28;20459;-42
2021/03/18 01:01:11;;;;;;;5.03;4.30;;;2.60;75.30;;;;;;5047257;28;20463;-43
2021/03/18 01:03:43;;;;;;;6.60;3.10;;;2.60;75.30;;;;;;5046570;28;20521;-43
2021/03/18 01:06:28;;;;;;;3.20;2.90;;;2.50;75.30;;;;;;5047031;28;20569;-43
2021/03/18 01:08:57;;;;;;;3.60;2.60;;;2.50;75.20;;;;;;5044807;28;20529;-43
2021/03/18 01:11:38;;;;;;;5.73;2.93;;;2.50;75.30;;;;;;5046011;28;20972;-43
2021/03/18 01:14:11;;;;;;;4.03;2.87;;;2.50;75.40;;;;;;5048045;28;20473;-43
2021/03/18 01:16:50;;;;;;;3.90;3.30;;;2.50;75.50;;;;;;5041805;28;20482;-42
2021/03/18 01:19:17;;;;;;;6.23;3.17;;;2.40;75.40;;;;;;5064158;28;20466;-43
2021/03/18 01:21:50;;;;;;;3.47;2.90;;;2.40;75.30;;;;;;5045767;28;21022;-43
2021/03/18 01:24:16;;;;;;;6.83;3.00;;;2.40;75.40;;;;;;5048565;28;20461;-43
2021/03/18 01:26:47;;;;;;;5.00;3.10;;;2.40;75.50;;;;;;5047555;28;20588;-43
2021/03/18 01:29:13;;;;;;;4.70;3.40;;;2.30;75.70;;;;;;5048061;28;20454;-43
2021/03/18 01:31:40;;;;;;;3.80;2.83;;;2.30;75.80;;;;;;5046944;28;20462;-42
2021/03/18 01:34:07;;;;;;;9.57;3.63;;;2.30;75.90;;;;;;5046674;28;20489;-43
2021/03/18 01:36:35;;;;;;;3.07;2.87;;;2.30;76.00;;;;;;5044502;28;20550;-42
2021/03/18 01:39:06;;;;;;;4.83;3.13;;;2.30;76.00;;;;;;5046426;28;20462;-43
2021/03/18 01:41:33;;;;;;;4.13;3.73;;;2.30;76.10;;;;;;5044576;28;20465;-43
2021/03/18 01:44:00;;;;;;;16.87;4.33;;;2.20;76.20;;;;;;5063765;28;20549;-43
2021/03/18 01:46:27;;;;;;;3.10;2.80;;;2.20;76.30;;;;;;5059358;28;20490;-43
2021/03/18 01:48:54;;;;;;;9.73;3.87;;;2.20;76.30;;;;;;5048310;28;20466;-41
2021/03/18 01:51:21;;;;;;;3.73;2.60;;;2.20;76.60;;;;;;5049148;28;20496;-41
2021/03/18 01:53:49;;;;;;;4.80;3.53;;;2.20;76.80;;;;;;5047371;28;20775;-41
2021/03/18 01:56:15;;;;;;;4.77;3.00;;;2.20;76.80;;;;;;5045323;28;21111;-43
2021/03/18 01:58:45;;;;;;;3.63;2.70;;;2.20;76.80;;;;;;5045126;28;20458;-43
2021/03/18 02:01:14;;;;;;;4.67;2.80;;;2.20;76.80;;;;;;5046520;28;20950;-43
2021/03/18 02:03:41;;;;;;;4.77;2.70;;;2.20;76.70;;;;;;5046192;28;20462;-43
2021/03/18 02:06:08;;;;;;;10.00;2.73;;;2.20;76.80;;;;;;5046836;28;20455;-43
2021/03/18 02:08:35;;;;;;;3.77;2.30;;;2.20;76.80;;;;;;5047738;28;20457;-43
2021/03/18 02:11:01;;;;;;;2.73;2.53;;;2.20;76.80;;;;;;5048527;28;20470;-42
2021/03/18 02:13:28;;;;;;;4.60;3.27;;;2.10;76.80;;;;;;5040249;28;20462;-42
2021/03/18 02:16:07;;;;;;;2.70;2.50;;;2.10;76.80;;;;;;5045972;28;20451;-42
2021/03/18 02:18:55;;;;;;;5.50;2.87;;;2.10;76.80;;;;;;5046436;28;20498;-41
2021/03/18 02:21:36;;;;;;;3.70;2.50;;;2.10;76.70;;;;;;5047796;28;20454;-41
2021/03/18 02:24:22;;;;;;;4.60;2.87;;;2.10;76.60;;;;;;5045770;28;20594;-41
2021/03/18 02:27:20;;;;;;;3.90;3.20;;;2.00;76.50;;;;;;5048248;28;20485;-43
2021/03/18 02:30:11;;;;;;;3.70;3.40;;;2.00;76.50;;;;;;5050683;28;20537;-43
2021/03/18 02:33:05;;;;;;;3.87;3.37;;;2.00;76.50;;;;;;5039047;28;21001;-44
2021/03/18 02:36:06;;;;;;;4.40;2.77;;;2.00;76.60;;;;;;5051695;28;20482;-43
2021/03/18 02:38:42;;;;;;;2.90;2.60;;;2.00;76.80;;;;;;5029108;28;20465;-43
2021/03/18 02:41:16;;;;;;;4.77;2.17;;;1.90;76.90;;;;;;5041622;28;20450;-41
2021/03/18 02:43:48;;;;;;;3.77;2.50;;;1.90;77.00;;;;;;5037509;28;20458;-41
2021/03/18 02:46:15;;;;;;;3.77;3.47;;;1.90;77.00;;;;;;5036066;28;20482;-41
2021/03/18 02:48:45;;;;;;;2.80;2.60;;;1.90;77.20;;;;;;5041369;28;20454;-41
2021/03/18 02:51:15;;;;;;;3.83;2.97;;;1.90;77.30;;;;;;5052743;28;20466;-41
2021/03/18 02:53:43;;;;;;;4.07;2.93;;;1.80;77.30;;;;;;5055727;28;20842;-41
2021/03/18 02:56:12;;;;;;;4.23;3.17;;;1.80;77.40;;;;;;5044909;28;20486;-43
2021/03/18 02:58:41;;;;;;;3.13;2.67;;;1.80;77.40;;;;;;5043769;28;20463;-43
2021/03/18 03:01:09;;;;;;;2.90;2.60;;;1.80;77.40;;;;;;5045538;28;20458;-43
2021/03/18 03:03:42;;;;;;;4.80;2.83;;;1.80;77.40;;;;;;5038545;28;20500;-42
2021/03/18 03:06:11;;;;;;;3.23;2.40;;;1.80;77.50;;;;;;5040497;28;20553;-42
2021/03/18 03:08:39;;;;;;;6.03;2.93;;;1.80;77.50;;;;;;5038422;28;20497;-43
2021/03/18 03:11:06;;;;;;;3.30;3.00;;;1.80;77.50;;;;;;5053674;28;20496;-43
2021/03/18 03:13:38;;;;;;;6.83;3.17;;;1.80;77.50;;;;;;5048299;28;20494;-43
2021/03/18 03:16:10;;;;;;;5.23;2.97;;;1.80;77.60;;;;;;5039541;28;20457;-41
2021/03/18 03:18:40;;;;;;;3.67;2.77;;;1.80;77.60;;;;;;5037195;28;20958;-43
2021/03/18 03:21:08;;;;;;;4.97;2.83;;;1.80;77.60;;;;;;5040489;28;20454;-43
2021/03/18 03:23:39;;;;;;;9.07;3.40;;;1.80;77.60;;;;;;5043182;28;21207;-43
2021/03/18 03:26:06;;;;;;;5.43;3.33;;;1.70;77.60;;;;;;5037978;28;20602;-43
2021/03/18 03:28:36;;;;;;;3.60;3.30;;;1.70;77.70;;;;;;5044093;28;20493;-43
2021/03/18 03:31:02;;;;;;;4.53;3.07;;;1.70;77.70;;;;;;5050394;28;20447;-42
2021/03/18 03:33:30;;;;;;;4.50;3.00;;;1.70;77.80;;;;;;5020178;28;20462;-43
2021/03/18 03:35:58;;;;;;;4.60;3.20;;;1.70;77.80;;;;;;5037204;28;20466;-43
2021/03/18 03:38:25;;;;;;;3.57;3.27;;;1.70;77.70;;;;;;5038465;28;20472;-43
2021/03/18 03:40:52;;;;;;;8.53;4.00;;;1.70;77.80;;;;;;5039254;28;20462;-41
2021/03/18 03:43:19;;;;;;;4.87;3.47;;;1.80;77.90;;;;;;5036545;28;20470;-41
2021/03/18 03:45:47;;;;;;;5.10;4.03;;;1.70;77.90;;;;;;5044163;28;20569;-41
2021/03/18 03:48:14;;;;;;;7.80;4.33;;;1.70;77.80;;;;;;5061258;28;20510;-41
2021/03/18 03:50:41;;;;;;;9.30;4.30;;;1.70;77.80;;;;;;5058466;28;20965;-41
2021/03/18 03:53:14;;;;;;;5.90;3.93;;;1.70;77.90;;;;;;5055138;28;20883;-41
2021/03/18 03:55:46;;;;;;;4.43;3.60;;;1.70;77.90;;;;;;5050842;28;20951;-41
2021/03/18 03:58:18;;;;;;;4.37;3.50;;;1.70;77.90;;;;;;5038172;28;20462;-41
2021/03/18 04:00:45;;;;;;;3.63;3.07;;;1.70;77.90;;;;;;5058159;28;20500;-41
2021/03/18 04:03:13;;;;;;;5.83;3.40;;;1.70;77.90;;;;;;5039557;28;20964;-41
2021/03/18 04:05:43;;;;;;;8.43;4.27;;;1.70;78.00;;;;;;5037795;28;20762;-41
2021/03/18 04:08:12;;;;;;;6.50;3.80;;;1.70;78.20;;;;;;5037011;28;21041;-41
2021/03/18 04:10:43;;;;;;;7.50;3.70;;;1.70;78.30;;;;;;5036071;28;20458;-41
2021/03/18 04:13:11;;;;;;;6.00;3.40;;;1.70;78.40;;;;;;5051422;28;20466;-41
2021/03/18 04:15:39;;;;;;;3.77;3.13;;;1.70;78.40;;;;;;5042399;28;20477;-41
2021/03/18 04:18:07;;;;;;;4.63;3.20;;;1.70;78.20;;;;;;5038010;28;20486;-41
2021/03/18 04:20:36;;;;;;;12.30;4.13;;;1.70;78.20;;;;;;5051806;28;20462;-41
2021/03/18 04:23:06;;;;;;;3.43;3.13;;;1.70;78.10;;;;;;5055288;28;20467;-41
2021/03/18 04:25:34;;;;;;;3.93;3.17;;;1.70;78.10;;;;;;5036057;28;20465;-41
2021/03/18 04:28:04;;;;;;;8.67;3.23;;;1.70;78.10;;;;;;5038049;28;20490;-41
2021/03/18 04:30:31;;;;;;;9.10;3.40;;;1.70;78.10;;;;;;5037758;28;20475;-41
2021/03/18 04:32:58;;;;;;;7.60;4.57;;;1.70;78.10;;;;;;5044415;28;21012;-41
2021/03/18 04:35:26;;;;;;;7.13;3.90;;;1.70;78.10;;;;;;5035607;28;20462;-41
2021/03/18 04:37:54;;;;;;;11.10;4.00;;;1.70;78.20;;;;;;5052251;28;20462;-41
2021/03/18 04:40:22;;;;;;;5.13;3.70;;;1.70;78.30;;;;;;5036385;28;21190;-41
2021/03/18 04:42:52;;;;;;;3.90;3.43;;;1.70;78.30;;;;;;5054345;28;20536;-41
2021/03/18 04:45:20;;;;;;;5.47;3.53;;;1.70;78.20;;;;;;5040504;28;20461;-41
2021/03/18 04:47:49;;;;;;;6.57;3.97;;;1.70;78.20;;;;;;5042779;28;20844;-41
2021/03/18 04:50:19;;;;;;;6.10;3.63;;;1.70;78.30;;;;;;5056318;28;20472;-41
2021/03/18 04:52:46;;;;;;;7.50;3.87;;;1.70;78.40;;;;;;5036267;28;20454;-41
2021/03/18 04:55:15;;;;;;;3.77;3.07;;;1.70;78.40;;;;;;5035745;28;20493;-42
2021/03/18 04:57:44;;;;;;;11.90;4.37;;;1.70;78.40;;;;;;5050177;28;20477;-42
2021/03/18 05:00:14;;;;;;;6.33;4.20;;;1.70;78.40;;;;;;5037577;28;20466;-43
2021/03/18 05:02:43;;;;;;;5.97;4.10;;;1.70;78.40;;;;;;5039142;28;20470;-42
2021/03/18 05:05:18;;;;;;;3.80;3.33;;;1.70;78.30;;;;;;5057911;28;20536;-41
2021/03/18 05:07:47;;;;;;;4.90;3.70;;;1.70;78.20;;;;;;5051946;28;20826;-41
2021/03/18 05:10:16;;;;;;;5.60;4.10;;;1.70;78.10;;;;;;5040248;28;21035;-42
2021/03/18 05:12:44;;;;;;;6.53;4.50;;;1.70;78.20;;;;;;5036186;28;20457;-42
2021/03/18 05:15:13;;;;;;;5.73;4.50;;;1.70;78.20;;;;;;5053365;28;20455;-41
2021/03/18 05:17:41;;;;;;;4.33;3.93;;;1.70;78.20;;;;;;5035162;28;20485;-41
2021/03/18 05:20:10;;;;;;;6.13;3.90;;;1.70;78.30;;;;;;5043053;28;20842;-41
2021/03/18 05:22:39;;;;;;;6.70;4.30;;;1.70;78.50;;;;;;5036769;28;20462;-41
2021/03/18 05:25:08;;;;;;;7.90;4.30;;;1.70;78.50;;;;;;5038309;28;20458;-41
2021/03/18 05:27:38;;;;;;;5.80;3.73;;;1.70;78.60;;;;;;5033129;28;21271;-41
2021/03/18 05:30:10;;;;;;;5.40;3.83;;;1.70;78.70;;;;;;5037824;28;20462;-41
2021/03/18 05:32:37;;;;;;;4.57;3.63;;;1.70;78.70;;;;;;5036905;28;20741;-41
2021/03/18 05:35:08;;;;;;;5.83;3.67;;;1.70;78.70;;;;;;5039317;28;20950;-41
2021/03/18 05:37:34;;;;;;;4.93;4.13;;;1.80;78.70;;;;;;5037034;28;20458;-41
2021/03/18 05:40:04;;;;;;;6.83;4.63;;;1.80;78.70;;;;;;5047651;28;20458;-44
2021/03/18 05:42:33;;;;;;;6.33;5.43;;;1.80;78.70;;;;;;5037128;28;20466;-43
2021/03/18 05:45:01;;;;;;;9.87;7.17;;;1.70;78.60;;;;;;5034398;28;20493;-43
2021/03/18 05:47:30;;;;;;;9.23;6.97;;;1.80;78.70;;;;;;5034774;28;20490;-41
2021/03/18 05:49:58;;;;;;;5.80;5.20;;;1.80;78.60;;;;;;5037394;28;20461;-43
2021/03/18 05:52:27;;;;;;;7.07;6.40;;;1.80;78.50;;;;;;5041501;28;20470;-43
2021/03/18 05:54:56;;;;;;;8.77;6.43;;;1.80;78.60;;;;;;5037758;28;21216;-44
2021/03/18 05:57:23;;;;;;;7.03;5.37;;;1.70;78.60;;;;;;5034613;28;20467;-43
2021/03/18 05:59:50;;;;;;;4.87;4.40;;;1.80;78.60;;;;;;5034338;28;20462;-44
2021/03/18 06:02:17;;;;;;;9.70;4.10;;;1.80;78.70;;;;;;5039989;28;20470;-43
2021/03/18 06:04:44;;;;;;;5.07;4.60;;;1.80;78.60;;;;;;5032969;28;20462;-42
2021/03/18 06:07:11;;;;;;;4.83;4.20;;;1.80;78.60;;;;;;5040664;28;20486;-42
2021/03/18 06:09:37;;;;;;;6.03;4.70;;;1.80;78.60;;;;;;5037089;28;20469;-43
2021/03/18 06:12:05;;;;;;;6.70;4.40;;;1.80;78.60;;;;;;5038603;28;20462;-43
2021/03/18 06:14:32;;;;;;;5.20;4.33;;;1.80;78.70;;;;;;5036974;28;20882;-44
2021/03/18 06:17:00;;;;;;;7.33;4.60;;;1.90;78.80;;;;;;5039554;28;20482;-43
2021/03/18 06:19:27;;;;;;;5.67;4.10;;;1.90;78.80;;;;;;5036756;28;20523;-43
2021/03/18 06:21:56;;;;;;;7.60;6.30;;;2.00;79.00;;;;;;5037723;28;20458;-42
2021/03/18 06:24:25;;;;;;;5.67;4.30;;;2.10;79.10;;;;;;5048900;28;20461;-43
2021/03/18 06:26:52;;;;;;;8.50;4.50;;;2.10;79.10;;;;;;5042620;28;20485;-42
2021/03/18 06:29:38;;;;;;;13.90;4.33;;;2.10;79.10;;;;;;5042092;28;20481;-43
2021/03/18 06:32:14;;;;;;;5.63;4.67;;;2.20;79.20;;;;;;5058222;28;20461;-43
2021/03/18 06:34:49;;;;;;;9.70;6.70;;;2.20;79.20;;;;;;5039153;28;20469;-43
2021/03/18 06:37:32;;;;;;;17.10;9.07;;;2.30;79.30;;;;;;5043499;28;20458;-43
2021/03/18 06:40:05;;;;;;;13.87;8.63;;;2.30;79.10;;;;;;5067405;28;20520;-42
2021/03/18 06:42:50;;;;;;;14.70;6.60;;;2.40;79.10;;;;;;5059034;28;20458;-44
2021/03/18 06:45:17;;;;;;;9.87;7.03;;;2.50;79.20;;;;;;5049896;28;20466;-43
2021/03/18 06:47:46;;;;;;;8.60;5.80;;;2.50;79.10;;;;;;5054111;28;20521;-43
2021/03/18 06:50:28;;;;;;;12.33;5.87;;;2.60;79.10;;;;;;5053337;28;20449;-43
2021/03/18 06:52:55;;;;;;;7.60;5.63;;;2.70;79.10;;;;;;5069351;28;20446;-43
2021/03/18 06:55:34;;;;;;;7.43;4.53;;;2.70;79.00;;;;;;5053785;28;20450;-42
2021/03/18 06:58:21;;;;;;;8.63;5.70;;;2.80;78.90;;;;;;5050541;28;20531;-42
2021/03/18 07:00:56;;;;;;;6.00;5.20;;;2.90;78.90;;;;;;5050344;28;20469;-44
2021/03/18 07:03:29;;;;;;;9.03;4.67;;;2.90;78.70;;;;;;5051816;28;20511;-43
2021/03/18 07:06:00;;;;;;;7.87;4.77;;;3.00;78.60;;;;;;5050581;28;20462;-44
2021/03/18 07:08:35;;;;;;;7.60;4.50;;;3.00;78.60;;;;;;5048588;28;20482;-44
2021/03/18 07:11:21;;;;;;;7.47;4.60;;;3.10;78.40;;;;;;5052922;28;20454;-42
2021/03/18 07:13:49;;;;;;;8.83;6.87;;;3.10;78.30;;;;;;5051629;28;20465;-43
2021/03/18 07:16:16;;;;;;;7.17;6.43;;;3.20;78.10;;;;;;5053355;28;20470;-43
2021/03/18 07:18:56;;;;;;;11.20;6.00;;;3.30;78.00;;;;;;5053392;28;20570;-44
2021/03/18 07:21:43;;;;;;;11.73;6.67;;;3.30;78.00;;;;;;5052187;28;20544;-44
2021/03/18 07:24:28;;;;;;;12.80;6.57;;;3.40;77.90;;;;;;5051253;28;20834;-44
2021/03/18 07:26:57;;;;;;;11.33;7.70;;;3.50;77.60;;;;;;5067423;28;20492;-42
2021/03/18 07:29:27;;;;;;;13.30;7.27;;;3.50;77.30;;;;;;5053237;28;20456;-44
2021/03/18 07:31:54;;;;;;;9.17;6.83;;;3.70;76.90;;;;;;5051747;28;20453;-44
2021/03/18 07:34:21;;;;;;;9.33;6.87;;;3.70;76.80;;;;;;5066542;28;20823;-42
2021/03/18 07:37:05;;;;;;;13.03;6.63;;;3.80;76.80;;;;;;5049472;28;20465;-43
2021/03/18 07:39:31;;;;;;;13.97;6.43;;;3.80;76.70;;;;;;5048883;28;20505;-43
2021/03/18 07:41:59;;;;;;;11.73;7.03;;;3.90;76.90;;;;;;5051470;28;20537;-44
2021/03/18 07:44:26;;;;;;;13.23;8.80;;;3.90;76.80;;;;;;5050099;28;20458;-43
2021/03/18 07:46:53;;;;;;;12.63;7.63;;;4.00;76.80;;;;;;5050811;28;20466;-43
2021/03/18 07:49:30;;;;;;;11.83;7.13;;;4.10;76.50;;;;;;5049144;28;20542;-43
2021/03/18 07:52:01;;;;;;;24.43;8.47;;;4.20;76.50;;;;;;5046606;28;20775;-44
2021/03/18 07:54:28;;;;;;;10.97;6.83;;;4.40;75.30;;;;;;5049468;28;20443;-43
2021/03/18 07:56:56;;;;;;;13.07;7.90;;;4.40;75.40;;;;;;5049573;28;20458;-43
2021/03/18 07:59:30;;;;;;;9.20;6.90;;;4.40;75.60;;;;;;5048812;28;20461;-44
2021/03/18 08:02:23;;;;;;;12.37;7.40;;;4.50;75.90;;;;;;5048397;28;20916;-43
2021/03/18 08:04:52;;;;;;;14.97;7.00;;;4.70;75.40;;;;;;5046883;28;21134;-44
2021/03/18 08:07:46;;;;;;;10.27;6.77;;;4.90;74.30;;;;;;5048813;28;20482;-43
2021/03/18 08:10:22;;;;;;;11.73;7.07;;;5.10;73.60;;;;;;5049762;28;20966;-44
2021/03/18 08:12:49;;;;;;;11.67;6.93;;;5.30;71.90;;;;;;5038148;28;20466;-43
2021/03/18 08:15:26;;;;;;;9.90;6.73;;;5.40;71.50;;;;;;5045831;28;20450;-43
2021/03/18 08:17:55;;;;;;;11.77;6.10;;;5.50;71.60;;;;;;5047137;28;20478;-43
2021/03/18 08:20:40;;;;;;;9.23;6.60;;;5.80;71.00;;;;;;5049404;28;20446;-43
2021/03/18 08:23:28;;;;;;;10.37;7.00;;;6.00;70.00;;;;;;5047616;28;20958;-44
2021/03/18 08:26:07;;;;;;;9.83;8.00;;;6.10;69.80;;;;;;5048631;28;20856;-44
2021/03/18 08:28:42;;;;;;;18.63;7.13;;;6.20;68.90;;;;;;5047937;28;20482;-44
2021/03/18 08:31:21;;;;;;;9.23;6.10;;;6.40;68.90;;;;;;5049393;28;20548;-44
2021/03/18 08:33:51;;;;;;;10.40;7.10;;;6.60;68.90;;;;;;5046123;28;20496;-43
2021/03/18 08:36:20;;;;;;;15.13;7.13;;;6.80;68.00;;;;;;5047471;28;20447;-42
2021/03/18 08:38:49;;;;;;;11.53;6.03;;;7.00;65.80;;;;;;5046370;28;20464;-43
2021/03/18 08:41:36;;;;;;;8.13;5.97;;;7.20;64.60;;;;;;5048733;28;20465;-42
2021/03/18 08:44:15;;;;;;;7.83;4.30;;;7.30;63.80;;;;;;5047805;28;20461;-42
2021/03/18 08:46:49;;;;;;;6.53;5.27;;;7.40;63.90;;;;;;5046244;28;20545;-43
2021/03/18 08:49:36;;;;;;;11.57;5.80;;;7.60;63.40;;;;;;5046744;28;20462;-42
2021/03/18 08:52:05;;;;;;;7.50;5.07;;;7.90;62.50;;;;;;5046396;28;20458;-43
2021/03/18 08:54:50;;;;;;;13.60;6.37;;;8.00;61.80;;;;;;5046881;28;20532;-43
2021/03/18 08:57:19;;;;;;;8.53;5.43;;;8.20;61.20;;;;;;5050715;28;20456;-42
2021/03/18 08:59:48;;;;;;;7.33;5.57;;;8.40;60.50;;;;;;5047612;28;22066;-43
2021/03/18 09:02:17;;;;;;;10.03;5.70;;;8.40;59.40;;;;;;5048675;28;21016;-42
2021/03/18 09:04:47;;;;;;;5.77;5.23;;;8.40;59.90;;;;;;5066394;28;20926;-43
2021/03/18 09:07:22;;;;;;;12.80;6.40;;;8.40;59.80;;;;;;5047704;28;21061;-42
2021/03/18 09:10:03;;;;;;;12.63;6.03;;;8.60;59.70;;;;;;5046987;28;20950;-43
2021/03/18 09:12:47;;;;;;;8.57;4.70;;;8.80;59.40;;;;;;5046450;28;20467;-43
2021/03/18 09:15:18;;;;;;;5.97;4.77;;;9.10;58.00;;;;;;5048554;28;20447;-43
2021/03/18 09:17:47;;;;;;;9.17;5.10;;;9.30;57.20;;;;;;5048350;28;20574;-43
2021/03/18 09:20:17;;;;;;;8.50;5.17;;;9.60;57.20;;;;;;5047137;28;20860;-43
2021/03/18 09:22:44;;;;;;;6.63;4.87;;;9.80;56.20;;;;;;5050490;28;20462;-42
2021/03/18 09:25:12;;;;;;;6.17;4.53;;;10.10;55.40;;;;;;5046901;28;20458;-43
2021/03/18 09:27:41;;;;;;;8.53;4.70;;;10.40;54.90;;;;;;5049619;28;20508;-43
2021/03/18 09:30:39;;;;;;;14.70;5.10;;;10.60;54.30;;;;;;5046115;28;20451;-43
2021/03/18 09:33:19;;;;;;;5.97;4.03;;;10.80;53.40;;;;;;5047922;28;20478;-43
2021/03/18 09:35:48;;;;;;;10.33;4.60;;;10.90;52.30;;;;;;5049098;28;20938;-43
2021/03/18 09:38:21;;;;;;;9.93;4.80;;;11.00;51.50;;;;;;5049168;28;20860;-43
2021/03/18 09:40:48;;;;;;;5.97;5.30;;;11.10;51.80;;;;;;5049388;28;20442;-43
2021/03/18 09:43:17;;;;;;;9.40;4.83;;;11.10;50.60;;;;;;5061798;28;20463;-43
2021/03/18 09:46:04;;;;;;;6.63;5.00;;;11.00;51.10;;;;;;5048826;28;20450;-43
2021/03/18 09:48:38;;;;;;;6.67;4.73;;;11.00;51.60;;;;;;5048066;28;20486;-43
2021/03/18 09:51:13;;;;;;;7.80;4.87;;;11.10;51.30;;;;;;5048177;28;20537;-43
2021/03/18 09:53:42;;;;;;;5.83;4.03;;;11.30;50.40;;;;;;5045951;28;20497;-43
2021/03/18 09:56:11;;;;;;;4.97;3.30;;;11.40;48.30;;;;;;5046059;28;20462;-43
2021/03/18 09:58:38;;;;;;;7.10;4.37;;;11.70;48.40;;;;;;5046162;28;20475;-43
2021/03/18 10:01:16;;;;;;;9.53;4.50;;;11.80;48.80;;;;;;5045607;28;20463;-43
2021/03/18 10:03:54;;;;;;;5.20;3.73;;;12.10;48.30;;;;;;5045229;28;20462;-43
2021/03/18 10:06:34;;;;;;;7.63;4.33;;;12.30;48.10;;;;;;5043699;28;21033;-43
2021/03/18 10:09:20;;;;;;;4.20;3.80;;;12.60;46.70;;;;;;5047320;28;20493;-43
2021/03/18 10:11:49;;;;;;;5.27;3.97;;;12.80;46.90;;;;;;5047556;28;20439;-42
2021/03/18 10:14:18;;;;;;;7.10;4.33;;;13.00;45.60;;;;;;5057574;28;20520;-43
2021/03/18 10:17:14;;;;;;;9.93;5.27;;;13.10;45.30;;;;;;5048856;28;20544;-43
2021/03/18 10:19:58;;;;;;;6.87;4.60;;;13.10;45.80;;;;;;5046077;28;20838;-43
2021/03/18 10:22:37;;;;;;;5.50;3.93;;;13.00;45.60;;;;;;5059811;28;20459;-43
2021/03/18 10:25:14;;;;;;;7.20;4.37;;;13.20;45.90;;;;;;5047098;28;20652;-43
2021/03/18 10:27:43;;;;;;;5.83;4.50;;;13.10;46.00;;;;;;5045757;28;20485;-43
2021/03/18 10:30:15;;;;;;;6.73;5.00;;;12.90;46.40;;;;;;5047595;28;20461;-43
2021/03/18 10:32:59;;;;;;;4.67;3.93;;;13.00;46.30;;;;;;5043571;28;20544;-43
2021/03/18 10:35:27;;;;;;;5.23;4.73;;;13.20;45.50;;;;;;5044400;28;20985;-43
2021/03/18 10:37:53;;;;;;;6.10;4.20;;;13.60;45.40;;;;;;5046095;28;20442;-43
2021/03/18 10:40:24;;;;;;;7.03;4.10;;;13.90;44.50;;;;;;5044922;28;20462;-43
2021/03/18 10:42:53;;;;;;;5.00;4.20;;;14.20;43.90;;;;;;5043714;28;20460;-43
2021/03/18 10:45:26;;;;;;;5.70;4.57;;;14.10;44.10;;;;;;5046782;28;20515;-42
2021/03/18 10:48:04;;;;;;;8.13;4.70;;;13.80;44.90;;;;;;5047286;28;20485;-43
2021/03/18 10:50:33;;;;;;;5.57;3.70;;;13.50;45.60;;;;;;5061964;28;20888;-44
2021/03/18 10:53:10;;;;;;;7.00;3.90;;;13.50;45.10;;;;;;5045990;28;20939;-43
2021/03/18 10:55:39;;;;;;;6.77;4.37;;;13.70;45.10;;;;;;5064602;28;20443;-43
2021/03/18 10:58:15;;;;;;;6.07;4.77;;;13.60;44.20;;;;;;5048946;28;20461;-42
2021/03/18 11:00:43;;;;;;;7.00;4.67;;;13.20;43.60;;;;;;5045542;28;20462;-43
2021/03/18 11:03:14;;;;;;;8.47;4.93;;;12.70;44.60;;;;;;5047650;28;20966;-44
2021/03/18 11:05:51;;;;;;;5.10;4.60;;;12.30;46.10;;;;;;5047055;28;20454;-43
2021/03/18 11:08:28;;;;;;;6.77;5.00;;;11.90;46.70;;;;;;5059895;28;20568;-43
2021/03/18 11:10:57;;;;;;;6.30;5.03;;;11.50;47.30;;;;;;5048911;28;20537;-43
2021/03/18 11:13:29;;;;;;;6.63;5.00;;;11.20;48.10;;;;;;5048439;28;20454;-43
2021/03/18 11:16:02;;;;;;;5.80;4.37;;;10.90;48.60;;;;;;5063538;28;20473;-43
2021/03/18 11:18:38;;;;;;;7.07;4.30;;;10.70;49.00;;;;;;5048864;28;20470;-43
2021/03/18 11:21:20;;;;;;;7.03;5.63;;;10.60;49.90;;;;;;5051390;28;20472;-43
2021/03/18 11:23:48;;;;;;;5.57;4.90;;;10.40;49.90;;;;;;5049721;28;20464;-43
2021/03/18 11:26:18;;;;;;;6.30;3.77;;;10.30;50.10;;;;;;5066254;28;20565;-41
2021/03/18 11:28:57;;;;;;;7.83;4.90;;;10.40;49.90;;;;;;5050909;28;20482;-41
2021/03/18 11:31:26;;;;;;;9.00;4.87;;;10.50;49.70;;;;;;5048351;28;20821;-41
2021/03/18 11:33:53;;;;;;;5.47;4.10;;;10.50;49.40;;;;;;5047450;28;20465;-41
2021/03/18 11:36:20;;;;;;;3.90;3.50;;;10.50;49.60;;;;;;5048810;28;20979;-41
2021/03/18 11:38:46;;;;;;;5.03;3.87;;;10.50;49.40;;;;;;5060047;28;20467;-41
2021/03/18 11:41:14;;;;;;;4.53;3.93;;;10.40;49.50;;;;;;5050084;28;20465;-41
2021/03/18 11:43:40;;;;;;;6.30;4.00;;;10.40;49.20;;;;;;5045053;28;20466;-41
2021/03/18 11:46:07;;;;;;;6.70;4.90;;;10.20;49.60;;;;;;5051010;28;20451;-41
2021/03/18 11:48:34;;;;;;;6.00;4.37;;;10.00;51.50;;;;;;5048435;28;20471;-41
2021/03/18 11:51:02;;;;;;;9.90;5.20;;;9.80;52.50;;;;;;5046210;28;20843;-41
2021/03/18 11:53:31;;;;;;;6.90;5.73;;;9.70;54.00;;;;;;5050228;28;20438;-41
2021/03/18 11:55:57;;;;;;;8.83;6.47;;;9.60;53.80;;;;;;5065132;28;20455;-41
2021/03/18 11:58:26;;;;;;;6.80;5.47;;;9.50;54.40;;;;;;5051388;28;21189;-41
2021/03/18 12:00:52;;;;;;;7.53;5.13;;;9.50;53.80;;;;;;5049634;28;20793;-41
2021/03/18 12:03:19;;;;;;;7.87;5.07;;;9.40;53.90;;;;;;5051219;28;20464;-41
2021/03/18 12:05:46;;;;;;;6.43;5.40;;;9.30;54.10;;;;;;5049347;28;20489;-41
2021/03/18 12:08:13;;;;;;;10.23;5.40;;;9.20;53.90;;;;;;5051823;28;20486;-41
2021/03/18 12:11:00;;;;;;;7.63;4.80;;;9.20;53.90;;;;;;5048562;28;20438;-41
2021/03/18 12:13:26;;;;;;;6.30;5.27;;;9.10;54.10;;;;;;5048817;28;20962;-41
2021/03/18 12:15:56;;;;;;;7.63;5.97;;;9.20;54.60;;;;;;5064270;28;20863;-41
2021/03/18 12:18:23;;;;;;;9.10;6.10;;;9.40;54.40;;;;;;5050278;28;20466;-41
2021/03/18 12:20:50;;;;;;;4.83;3.87;;;9.60;53.60;;;;;;5044980;28;20458;-41
2021/03/18 12:23:17;;;;;;;6.83;4.63;;;9.70;51.30;;;;;;5047351;28;20486;-41
2021/03/18 12:25:46;;;;;;;6.63;4.73;;;9.70;51.90;;;;;;5049553;28;20459;-41
2021/03/18 12:28:18;;;;;;;5.73;3.83;;;9.70;51.80;;;;;;5046505;28;20844;-41
2021/03/18 12:30:46;;;;;;;7.30;4.33;;;9.60;52.30;;;;;;5049983;28;20537;-41
2021/03/18 12:33:13;;;;;;;8.20;5.77;;;9.50;53.00;;;;;;5047057;28;20748;-41
2021/03/18 12:35:40;;;;;;;8.40;6.17;;;9.40;53.30;;;;;;5046594;28;20464;-41
2021/03/18 12:38:06;;;;;;;10.27;6.63;;;9.30;54.90;;;;;;5049267;28;20457;-41
2021/03/18 12:40:33;;;;;;;10.80;7.10;;;9.20;56.20;;;;;;5064624;28;20449;-41
2021/03/18 12:42:59;;;;;;;7.67;6.43;;;9.10;58.10;;;;;;5048396;28;20450;-41
2021/03/18 12:45:26;;;;;;;9.53;5.60;;;9.00;58.10;;;;;;5050012;28;20459;-41
2021/03/18 12:47:52;;;;;;;14.60;6.97;;;8.90;58.80;;;;;;5048304;28;20478;-41
2021/03/18 12:50:21;;;;;;;11.33;7.93;;;8.90;59.10;;;;;;5048746;28;20455;-41
2021/03/18 12:52:47;;;;;;;10.10;7.13;;;8.90;59.60;;;;;;5047002;28;20458;-41
2021/03/18 12:55:15;;;;;;;10.67;7.90;;;8.90;58.70;;;;;;5043853;28;20950;-41
2021/03/18 12:57:51;;;;;;;12.17;7.20;;;8.80;60.10;;;;;;5046762;28;20469;-41
2021/03/18 13:00:20;;;;;;;12.80;7.60;;;8.90;58.30;;;;;;5046630;28;21003;-41
2021/03/18 13:02:47;;;;;;;13.87;8.07;;;8.90;57.50;;;;;;5042469;28;20465;-41
2021/03/18 13:05:14;;;;;;;12.13;7.23;;;8.90;58.20;;;;;;5047477;28;20535;-41
2021/03/18 13:07:41;;;;;;;10.97;7.47;;;8.90;58.30;;;;;;5044823;28;20482;-41
2021/03/18 13:10:09;;;;;;;12.40;8.33;;;9.10;58.30;;;;;;5049215;28;20713;-41
2021/03/18 13:12:35;;;;;;;14.90;9.20;;;9.30;58.20;;;;;;5044799;28;20481;-41
2021/03/18 13:15:06;;;;;;;13.90;9.60;;;9.40;58.10;;;;;;5047178;28;20490;-41